createdAt,value
2023-04-27T00:21:32.078Z,17.80
2023-04-27T00:26:37.993Z,14.00
2023-04-27T00:31:44.360Z,14.80
2023-04-27T00:36:50.175Z,13.40
2023-04-27T00:41:57.375Z,14.80
2023-04-27T00:47:16.598Z,18.20
2023-04-27T00:52:30.441Z,16.80
2023-04-27T00:57:42.682Z,17.20
2023-04-27T01:02:52.255Z,14.00
2023-04-27T01:07:57.987Z,11.20
2023-04-27T01:13:05.473Z,12.80
2023-04-27T01:18:11.315Z,14.40
2023-04-27T01:23:17.732Z,18.00
2023-04-27T01:28:23.471Z,16.00
2023-04-27T01:33:29.890Z,13.20
2023-04-27T01:38:36.517Z,15.20
2023-04-27T01:43:43.847Z,18.60
2023-04-27T01:48:49.245Z,30.90
2023-04-27T01:53:55.096Z,23.00
2023-04-27T01:59:00.615Z,14.40
2023-04-27T02:04:06.782Z,22.30
2023-04-27T02:09:12.680Z,18.80
2023-04-27T02:14:19.301Z,18.20
2023-04-27T02:19:25.405Z,17.70
2023-04-27T02:24:31.223Z,18.00
2023-04-27T02:29:39.576Z,16.50
2023-04-27T02:34:45.892Z,15.30
2023-04-27T02:39:51.618Z,17.40
2023-04-27T02:44:57.109Z,16.60
2023-04-27T02:50:03.005Z,24.90
2023-04-27T02:55:12.354Z,21.50
2023-04-27T03:00:18.980Z,20.70
2023-04-27T03:05:28.843Z,19.60
2023-04-27T03:10:34.404Z,22.20
2023-04-27T03:15:40.023Z,20.10
2023-04-27T03:20:45.438Z,23.00
2023-04-27T03:25:51.194Z,27.30
2023-04-27T03:30:56.692Z,25.10
2023-04-27T03:36:02.569Z,21.10
2023-04-27T03:41:08.107Z,23.70
2023-04-27T03:46:14.437Z,37.20
2023-04-27T03:51:20.850Z,24.10
2023-04-27T03:56:26.629Z,22.50
2023-04-27T04:01:34.223Z,21.30
2023-04-27T04:06:39.791Z,19.70
2023-04-27T04:11:45.127Z,20.30
2023-04-27T04:16:51.702Z,23.50
2023-04-27T04:21:59.686Z,23.40
2023-04-27T04:27:05.662Z,25.00
2023-04-27T04:32:12.655Z,21.40
2023-04-27T04:37:24.246Z,19.50
2023-04-27T04:42:34.493Z,32.10
2023-04-27T04:47:40.707Z,28.80
2023-04-27T04:52:46.561Z,22.30
2023-04-27T04:57:52.641Z,21.10
2023-04-27T05:02:58.867Z,17.90
2023-04-27T05:08:07.185Z,17.40
2023-04-27T05:13:12.533Z,14.70
2023-04-27T05:18:18.178Z,13.60
2023-04-27T05:23:23.624Z,13.50
2023-04-27T05:28:29.116Z,13.50
2023-04-27T05:33:34.656Z,10.40
2023-04-27T05:38:40.411Z,11.30
2023-04-27T05:43:46.295Z,14.70
2023-04-27T05:48:51.926Z,12.70
2023-04-27T05:53:57.697Z,13.30
2023-04-27T05:59:03.619Z,10.20
2023-04-27T06:04:09.183Z,12.10
2023-04-27T06:09:15.695Z,8.10
2023-04-27T06:14:21.309Z,11.10
2023-04-27T06:19:26.850Z,10.50
2023-04-27T06:24:32.446Z,9.40
2023-04-27T06:29:37.953Z,10.60
2023-04-27T06:34:43.446Z,9.30
2023-04-27T06:39:48.902Z,9.90
2023-04-27T06:44:56.644Z,9.40
2023-04-27T06:50:02.369Z,11.60
2023-04-27T06:55:09.758Z,8.80
2023-04-27T07:00:16.731Z,14.00
2023-04-27T07:05:22.593Z,10.10
2023-04-27T07:10:29.049Z,7.10
2023-04-27T07:15:34.532Z,7.00
2023-04-27T07:20:41.037Z,8.80
2023-04-27T07:25:46.792Z,7.50
2023-04-27T07:30:52.616Z,6.30
2023-04-27T07:35:58.351Z,7.90
2023-04-27T07:41:05.717Z,9.60
2023-04-27T07:46:11.981Z,7.10
2023-04-27T07:51:17.628Z,9.30
2023-04-27T07:56:23.119Z,8.30
2023-04-27T08:01:28.893Z,6.40
2023-04-27T08:06:35.807Z,8.30
2023-04-27T08:11:41.618Z,8.80
2023-04-27T08:16:47.136Z,10.60
2023-04-27T08:21:52.681Z,12.80
2023-04-27T08:26:58.081Z,12.00
2023-04-27T08:32:04.479Z,11.70
2023-04-27T08:37:10.193Z,8.30
2023-04-27T08:42:16.096Z,5.30
2023-04-27T08:47:31.110Z,8.00
2023-04-27T08:52:46.874Z,5.00
2023-04-27T08:58:00.385Z,9.60
2023-04-27T09:03:06.558Z,8.30
2023-04-27T09:08:12.194Z,7.80
2023-04-27T09:13:18.782Z,8.80
2023-04-27T09:18:25.106Z,10.50
2023-04-27T09:23:32.340Z,6.70
2023-04-27T09:28:41.357Z,8.30
2023-04-27T09:33:54.559Z,8.40
2023-04-27T09:39:03.258Z,5.40
2023-04-27T09:44:08.970Z,6.00
2023-04-27T09:49:16.124Z,6.90
2023-04-27T09:54:23.985Z,7.30
2023-04-27T09:59:48.435Z,6.40
2023-04-27T10:05:27.562Z,6.40
2023-04-27T10:10:47.200Z,6.80
2023-04-27T10:15:52.868Z,4.80
2023-04-27T10:21:09.384Z,5.50
2023-04-27T10:26:21.914Z,7.40
2023-04-27T10:31:30.566Z,4.70
2023-04-27T10:36:40.970Z,6.60
2023-04-27T10:41:54.801Z,7.40
2023-04-27T10:47:02.480Z,6.00
2023-04-27T10:52:08.526Z,7.90
2023-04-27T10:57:14.405Z,9.00
2023-04-27T11:02:27.343Z,6.30
2023-04-27T11:07:33.749Z,7.90
2023-04-27T11:12:39.319Z,4.30
2023-04-27T11:17:45.116Z,4.80
2023-04-27T11:22:50.580Z,6.90
2023-04-27T11:27:56.089Z,6.80
2023-04-27T11:33:10.374Z,4.50
2023-04-27T11:38:19.834Z,4.10
2023-04-27T11:43:27.439Z,4.80
2023-04-27T11:48:33.192Z,7.10
2023-04-27T11:53:39.865Z,4.30
2023-04-27T11:58:46.471Z,4.10
2023-04-27T12:03:53.047Z,7.90
2023-04-27T12:08:59.318Z,5.30
2023-04-27T12:14:04.882Z,5.10
2023-04-27T12:19:10.342Z,4.60
2023-04-27T12:24:16.093Z,3.00
2023-04-27T12:29:22.347Z,7.00
2023-04-27T12:34:28.579Z,5.30
2023-04-27T12:39:34.396Z,4.20
2023-04-27T12:44:39.922Z,6.00
2023-04-27T12:49:45.494Z,4.10
2023-04-27T12:54:57.698Z,6.50
2023-04-27T13:00:05.556Z,3.50
2023-04-27T13:05:12.141Z,4.90
2023-04-27T13:10:17.722Z,5.90
2023-04-27T13:15:23.181Z,3.80
2023-04-27T13:20:28.733Z,5.60
2023-04-27T13:25:34.359Z,3.00
2023-04-27T13:30:39.959Z,4.50
2023-04-27T13:35:45.540Z,3.70
2023-04-27T13:40:50.976Z,6.30
2023-04-27T13:45:58.332Z,5.50
2023-04-27T13:51:06.296Z,5.70
2023-04-27T13:56:11.711Z,5.60
2023-04-27T14:01:17.148Z,5.70
2023-04-27T14:06:22.801Z,7.00
2023-04-27T14:11:28.495Z,4.40
2023-04-27T14:16:34.106Z,6.30
2023-04-27T14:21:39.479Z,6.90
2023-04-27T14:26:46.602Z,3.40
2023-04-27T14:31:52.207Z,5.00
2023-04-27T14:36:57.678Z,5.90
2023-04-27T14:42:04.218Z,4.20
2023-04-27T14:47:09.921Z,3.90
2023-04-27T14:52:15.523Z,4.60
2023-04-27T14:57:21.120Z,4.10
2023-04-27T15:02:26.785Z,7.50
2023-04-27T15:07:32.283Z,5.20
2023-04-27T15:12:37.786Z,6.30
2023-04-27T15:17:43.418Z,4.20
2023-04-27T15:22:49.044Z,5.40
2023-04-27T15:27:54.724Z,6.40
2023-04-27T15:33:00.196Z,5.90
2023-04-27T15:38:06.664Z,11.80
2023-04-27T15:43:12.333Z,8.80
2023-04-27T15:52:44.590Z,7.40
2023-04-27T15:57:50.607Z,7.40
2023-04-27T16:02:56.303Z,9.10
2023-04-27T16:08:02.003Z,7.30
2023-04-27T16:13:07.483Z,8.70
2023-04-27T16:18:13.091Z,4.90
2023-04-27T16:23:18.746Z,5.70
2023-04-27T16:28:24.192Z,5.70
2023-04-27T16:33:29.746Z,4.90
2023-04-27T16:38:36.612Z,5.40
2023-04-27T16:43:44.223Z,6.50
2023-04-27T16:48:49.829Z,6.60
2023-04-27T16:53:55.158Z,8.90
2023-04-27T16:59:01.347Z,6.60
2023-04-27T17:04:07.341Z,5.10
2023-04-27T17:09:13.205Z,9.10
2023-04-27T17:14:19.703Z,6.10
2023-04-27T17:19:25.165Z,8.80
2023-04-27T17:24:30.638Z,10.20
2023-04-27T17:29:36.412Z,6.10
2023-04-27T17:34:43.066Z,6.40
2023-04-27T17:39:54.136Z,9.70
2023-04-27T17:44:59.418Z,8.60
2023-04-27T17:50:05.606Z,8.90
2023-04-27T17:55:11.044Z,11.50
2023-04-27T18:00:18.436Z,9.10
2023-04-27T18:05:24.113Z,9.80
2023-04-27T18:10:29.528Z,16.80
2023-04-27T18:15:35.078Z,14.00
2023-04-27T18:20:44.812Z,13.50
2023-04-27T18:25:50.650Z,11.60
2023-04-27T18:30:56.075Z,13.40
2023-04-27T18:36:01.632Z,15.10
2023-04-27T18:41:07.267Z,25.10
2023-04-27T18:46:13.142Z,25.50
2023-04-27T18:51:18.542Z,25.40
2023-04-27T18:56:24.230Z,21.50
2023-04-27T19:01:30.441Z,18.20
2023-04-27T19:06:36.349Z,19.50
2023-04-27T19:11:42.666Z,17.10
2023-04-27T19:16:48.346Z,23.10
2023-04-27T19:21:54.234Z,19.90
2023-04-27T19:26:59.740Z,19.10
2023-04-27T19:32:05.562Z,21.90
2023-04-27T19:37:11.081Z,23.80
2023-04-27T19:42:16.681Z,30.40
2023-04-27T19:47:23.844Z,28.80
2023-04-27T19:52:30.019Z,31.50
2023-04-27T19:57:35.693Z,28.40
2023-04-27T20:02:41.264Z,36.50
2023-04-27T20:07:47.019Z,30.00
2023-04-27T20:12:57.068Z,30.70
2023-04-27T20:18:03.031Z,32.00
2023-04-27T20:23:09.008Z,34.40
2023-04-27T20:28:14.462Z,38.80
2023-04-27T20:33:20.142Z,32.40
2023-04-27T20:38:25.650Z,37.70
2023-04-27T20:43:31.492Z,52.10
2023-04-27T20:48:37.170Z,56.50
2023-04-27T20:53:42.757Z,50.30
2023-04-27T20:58:51.632Z,50.60
2023-04-27T21:04:12.677Z,55.90
2023-04-27T21:09:18.296Z,57.30
2023-04-27T21:14:23.791Z,64.60
2023-04-27T21:19:29.157Z,68.30
2023-04-27T21:24:34.654Z,62.50
2023-04-27T21:29:40.236Z,79.60
2023-04-27T21:34:50.577Z,89.30
2023-04-27T21:39:59.923Z,109.50
2023-04-27T21:45:06.559Z,107.20
2023-04-27T21:50:12.222Z,75.30
2023-04-27T21:55:17.745Z,93.80
2023-04-27T22:00:23.664Z,87.20
2023-04-27T22:05:29.254Z,80.00
2023-04-27T22:10:35.135Z,75.50
2023-04-27T22:15:41.105Z,77.70
2023-04-27T22:20:47.302Z,76.40
2023-04-27T22:25:52.916Z,71.70
2023-04-27T22:30:58.246Z,75.20
2023-04-27T22:36:04.048Z,78.90
2023-04-27T22:41:09.570Z,91.20
2023-04-27T22:46:15.110Z,84.00
2023-04-27T22:51:21.789Z,80.60
2023-04-27T22:56:27.141Z,85.10
2023-04-27T23:01:32.774Z,96.40
2023-04-27T23:06:38.258Z,102.70
2023-04-27T23:11:43.660Z,115.10
2023-04-27T23:16:49.716Z,109.10
2023-04-27T23:21:55.433Z,112.90
2023-04-27T23:27:01.255Z,117.60
2023-04-27T23:32:07.628Z,106.80
2023-04-27T23:37:13.471Z,96.10
2023-04-27T23:42:18.924Z,97.90
2023-04-27T23:47:24.641Z,85.60
2023-04-27T23:52:30.048Z,95.60
2023-04-27T23:57:35.593Z,95.30
